Time;durP1;ratioP1;P1;durP2;ratioP2;P2;SDS_P1;SDS_P2;PMS_P1;PMS_P2;Temp;Humidity;BMP_temperature;BMP_pressure;BME280_temperature;BME280_humidity;BME280_pressure;Samples;Min_cycle;Max_cycle;Signal;HPM_P1;HPM_P2
2023/08/29 00:00:53;;;;;;;40.00;25.50;;;;;;;18.70;93.87;96034.80;104949;1260;99602;-89
2023/08/29 00:03:28;;;;;;;33.10;24.60;;;;;;;18.73;94.09;96038.67;104862;1267;102585;-89
2023/08/29 00:06:06;;;;;;;33.00;23.70;;;;;;;18.76;94.03;96037.81;104931;1262;101457;-89
2023/08/29 00:08:34;;;;;;;34.80;23.60;;;;;;;18.78;94.11;96040.91;105034;1260;98959;-89
2023/08/29 00:11:04;;;;;;;36.90;24.50;;;;;;;18.80;94.28;96045.20;104597;1263;99307;-76
2023/08/29 00:13:31;;;;;;;36.00;24.60;;;;;;;18.83;94.27;96049.84;104616;1265;98891;-90
2023/08/29 00:16:00;;;;;;;39.60;26.70;;;;;;;18.86;94.42;96053.79;104585;1270;103506;-90
2023/08/29 00:18:28;;;;;;;38.80;26.60;;;;;;;18.89;94.42;96060.36;104702;1270;101428;-89
2023/08/29 00:20:55;;;;;;;44.40;27.50;;;;;;;18.91;94.50;96069.30;104506;1272;100057;-89
2023/08/29 00:23:23;;;;;;;42.00;27.00;;;;;;;18.94;94.75;96064.84;104607;1261;98123;-90
2023/08/29 00:25:52;;;;;;;39.80;26.40;;;;;;;18.96;94.65;96073.31;104535;1273;98652;-89
2023/08/29 00:28:19;;;;;;;42.30;24.70;;;;;;;18.98;94.72;96082.27;104559;1273;111780;-88
2023/08/29 00:30:47;;;;;;;40.80;25.80;;;;;;;19.00;94.99;96091.42;104563;1270;100036;-82
2023/08/29 00:33:14;;;;;;;33.80;24.00;;;;;;;19.00;94.91;96091.30;104521;1276;99721;-81
2023/08/29 00:35:42;;;;;;;41.10;24.00;;;;;;;19.00;94.96;96102.40;104431;1273;98106;-81
2023/08/29 00:38:10;;;;;;;33.70;23.60;;;;;;;19.01;95.18;96104.70;104464;1264;98438;-83
2023/08/29 00:40:38;;;;;;;27.30;20.30;;;;;;;19.00;95.38;96114.72;104513;1281;103637;-84
2023/08/29 00:43:06;;;;;;;30.20;21.40;;;;;;;18.99;95.65;96121.67;104637;1261;101135;-81
2023/08/29 00:45:37;;;;;;;28.40;20.70;;;;;;;18.98;96.14;96118.95;104595;1262;99362;-82
2023/08/29 00:48:08;;;;;;;28.20;18.90;;;;;;;18.98;96.30;96105.39;104615;1264;98103;-84
2023/08/29 00:50:36;;;;;;;25.90;19.00;;;;;;;18.98;96.11;96098.23;104507;1266;99343;-76
2023/08/29 00:53:06;;;;;;;25.30;17.80;;;;;;;19.00;96.83;96092.08;104636;1276;102560;-76
2023/08/29 00:55:36;;;;;;;25.90;18.60;;;;;;;19.01;96.67;96090.81;104537;1263;101409;-75
2023/08/29 00:58:04;;;;;;;21.70;17.10;;;;;;;19.02;96.60;96095.82;104510;1259;99961;-76
2023/08/29 01:00:33;;;;;;;21.20;16.10;;;;;;;19.04;96.39;96110.84;104536;1266;99201;-76
2023/08/29 01:03:03;;;;;;;23.40;17.00;;;;;;;19.06;96.51;96132.54;104455;1265;98594;-75
2023/08/29 01:05:31;;;;;;;21.30;15.60;;;;;;;19.08;96.66;96145.77;104610;1260;102420;-76
2023/08/29 01:08:01;;;;;;;21.40;16.30;;;;;;;19.10;96.56;96148.98;105009;1254;100017;-82
2023/08/29 01:10:41;;;;;;;20.10;15.20;;;;;;;19.13;96.43;96146.09;104962;1256;99856;-82
2023/08/29 01:13:36;;;;;;;19.60;16.10;;;;;;;19.16;96.28;96135.60;104948;1263;97854;-82
2023/08/29 01:16:08;;;;;;;16.50;14.40;;;;;;;19.19;96.77;96133.01;104989;1254;99589;-76
2023/08/29 01:18:38;;;;;;;16.70;14.10;;;;;;;19.19;96.75;96130.81;104949;1264;103494;-75
2023/08/29 01:21:33;;;;;;;16.80;14.00;;;;;;;19.20;96.57;96127.29;104673;1257;100401;-76
2023/08/29 01:24:33;;;;;;;15.70;14.00;;;;;;;19.21;96.41;96120.41;105004;1275;100081;-76
2023/08/29 01:27:01;;;;;;;16.50;13.00;;;;;;;19.21;96.20;96117.67;105006;1257;97966;-82
2023/08/29 01:29:29;;;;;;;14.70;12.70;;;;;;;19.21;96.17;96118.40;104581;1273;99800;-76
2023/08/29 01:31:59;;;;;;;14.00;12.20;;;;;;;19.22;95.95;96116.30;105001;1267;103627;-83
2023/08/29 01:34:27;;;;;;;13.70;11.70;;;;;;;19.22;95.61;96118.92;104961;1260;100382;-82
2023/08/29 01:36:55;;;;;;;13.10;11.70;;;;;;;19.24;95.43;96111.02;104556;1270;108591;-82
2023/08/29 01:39:23;;;;;;;15.70;12.90;;;;;;;19.25;95.41;96106.96;104933;1254;98862;-82
2023/08/29 01:41:50;;;;;;;18.40;12.70;;;;;;;19.26;95.22;96105.86;104931;1254;98552;-81
2023/08/29 01:44:18;;;;;;;16.40;12.90;;;;;;;19.25;95.09;96107.57;104950;1268;102110;-82
2023/08/29 01:46:46;;;;;;;15.20;12.20;;;;;;;19.23;94.89;96105.57;104978;1257;101576;-82
2023/08/29 01:49:14;;;;;;;12.90;11.50;;;;;;;19.21;94.64;96097.62;105051;1258;99257;-81
2023/08/29 01:51:41;;;;;;;12.40;11.00;;;;;;;19.16;94.58;96094.96;104974;1254;98030;-82
2023/08/29 01:54:09;;;;;;;12.40;11.10;;;;;;;19.14;94.53;96094.50;104984;1254;98428;-82
2023/08/29 01:56:40;;;;;;;12.10;10.50;;;;;;;19.12;94.46;96089.49;104973;1264;102171;-81
2023/08/29 01:59:09;;;;;;;11.70;10.50;;;;;;;19.08;94.35;96089.67;104675;1264;101124;-82
2023/08/29 02:01:39;;;;;;;13.10;11.30;;;;;;;19.04;94.48;96091.59;104825;1257;148132;-81
2023/08/29 02:04:07;;;;;;;12.10;10.80;;;;;;;19.00;94.19;96096.61;104985;1257;97940;-82
2023/08/29 02:06:35;;;;;;;11.10;9.90;;;;;;;18.98;94.27;96098.39;104651;1261;98606;-81
2023/08/29 02:09:03;;;;;;;15.20;10.10;;;;;;;18.98;94.39;96099.54;104568;1271;103082;-81
2023/08/29 02:11:31;;;;;;;11.30;10.20;;;;;;;18.98;94.31;96103.48;104608;1271;100577;-82
2023/08/29 02:13:58;;;;;;;13.60;11.50;;;;;;;18.98;94.39;96115.34;104641;1261;98959;-82
2023/08/29 02:16:26;;;;;;;12.40;10.70;;;;;;;18.99;94.46;96117.63;104642;1257;98210;-76
2023/08/29 02:18:54;;;;;;;16.80;12.50;;;;;;;18.98;94.19;96114.24;104670;1264;98476;-76
2023/08/29 02:21:22;;;;;;;19.40;12.70;;;;;;;18.93;94.23;96120.69;104618;1262;103589;-76
2023/08/29 02:23:49;;;;;;;15.00;11.40;;;;;;;18.89;94.37;96122.48;104666;1260;100439;-76
2023/08/29 02:26:17;;;;;;;12.20;11.00;;;;;;;18.86;94.37;96121.83;104679;1271;99008;-76
2023/08/29 02:28:44;;;;;;;15.60;12.80;;;;;;;18.82;94.32;96109.09;104685;1260;98185;-76
2023/08/29 02:31:13;;;;;;;15.20;12.60;;;;;;;18.81;94.49;96101.93;104621;1261;98120;-81
2023/08/29 02:33:40;;;;;;;15.60;11.40;;;;;;;18.79;94.43;96108.48;104675;1270;102970;-82
2023/08/29 02:36:08;;;;;;;16.50;12.10;;;;;;;18.79;94.41;96111.59;104559;1260;99179;-81
2023/08/29 02:38:38;;;;;;;14.20;11.90;;;;;;;18.79;94.18;96124.05;104768;1267;99953;-81
2023/08/29 02:41:11;;;;;;;15.10;12.80;;;;;;;18.78;94.26;96127.73;104932;1267;98084;-81
2023/08/29 02:43:39;;;;;;;15.90;11.30;;;;;;;18.77;94.22;96124.56;104935;1254;98346;-86
2023/08/29 02:46:07;;;;;;;15.10;11.20;;;;;;;18.74;93.98;96132.14;105004;1276;102530;-86
2023/08/29 02:48:35;;;;;;;12.80;11.50;;;;;;;18.68;93.96;96130.48;105045;1257;100430;-86
2023/08/29 02:51:03;;;;;;;13.50;11.50;;;;;;;18.67;93.96;96118.48;104995;1270;98430;-86
2023/08/29 02:53:31;;;;;;;14.30;11.30;;;;;;;18.66;93.95;96103.94;105015;1255;97934;-88
2023/08/29 02:55:59;;;;;;;13.10;10.80;;;;;;;18.66;93.99;96095.80;105015;1255;98646;-87
2023/08/29 02:58:27;;;;;;;16.80;12.00;;;;;;;18.66;93.90;96102.36;104998;1258;102205;-88
2023/08/29 03:00:58;;;;;;;17.30;12.00;;;;;;;18.67;93.90;96104.98;104987;1254;100325;-84
2023/08/29 03:03:27;;;;;;;20.40;12.70;;;;;;;18.66;93.74;96109.48;104696;1271;99065;-75
2023/08/29 03:05:56;;;;;;;13.70;12.30;;;;;;;18.65;93.86;96112.53;104990;1257;98960;-76
2023/08/29 03:08:24;;;;;;;15.80;11.70;;;;;;;18.66;93.83;96108.75;104708;1261;98393;-75
2023/08/29 03:10:52;;;;;;;18.00;13.00;;;;;;;18.63;93.65;96096.77;104835;1261;103591;-76
2023/08/29 03:13:21;;;;;;;17.70;12.50;;;;;;;18.56;93.49;96089.84;104990;1266;100381;-76
2023/08/29 03:15:49;;;;;;;15.40;13.00;;;;;;;18.53;93.52;96092.23;105009;1257;98800;-82
2023/08/29 03:18:17;;;;;;;16.80;12.70;;;;;;;18.52;93.66;96102.13;104536;1264;98031;-82
2023/08/29 03:20:45;;;;;;;12.90;11.40;;;;;;;18.51;93.65;96103.17;104956;1257;98376;-82
2023/08/29 03:23:13;;;;;;;16.90;12.10;;;;;;;18.47;93.50;96094.70;104685;1270;103869;-81
2023/08/29 03:25:41;;;;;;;13.60;11.80;;;;;;;18.42;93.30;96086.52;104666;1261;100423;-82
2023/08/29 03:28:09;;;;;;;15.40;11.90;;;;;;;18.40;93.19;96086.66;104491;1263;99273;-81
2023/08/29 03:30:36;;;;;;;13.40;11.10;;;;;;;18.34;93.10;96093.07;104428;1261;98858;-82
2023/08/29 03:33:04;;;;;;;15.30;11.90;;;;;;;18.29;93.19;96095.92;104529;1264;98750;-82
2023/08/29 03:35:32;;;;;;;16.40;11.80;;;;;;;18.26;93.23;96093.87;104523;1273;102637;-81
2023/08/29 03:38:00;;;;;;;17.30;12.20;;;;;;;18.20;93.06;96092.31;104503;1264;100432;-81
2023/08/29 03:40:27;;;;;;;15.20;12.80;;;;;;;18.13;93.09;96096.66;104482;1264;98775;-75
2023/08/29 03:42:55;;;;;;;14.90;11.80;;;;;;;18.11;93.37;96102.38;104479;1264;98021;-76
2023/08/29 03:45:23;;;;;;;17.00;12.20;;;;;;;18.12;93.51;96112.23;104570;1263;98511;-77
2023/08/29 03:47:50;;;;;;;18.30;12.80;;;;;;;18.15;93.44;96116.07;104444;1258;102793;-77
2023/08/29 03:50:19;;;;;;;15.60;12.20;;;;;;;18.17;93.30;96115.56;104461;1261;101244;-79
2023/08/29 03:52:46;;;;;;;16.50;12.60;;;;;;;18.17;93.46;96113.38;104479;1266;99256;-80
2023/08/29 03:55:14;;;;;;;17.10;11.70;;;;;;;18.18;93.39;96123.80;104586;1260;99161;-77
2023/08/29 03:57:42;;;;;;;16.50;12.50;;;;;;;18.18;93.39;96132.33;104671;1260;97937;-77
2023/08/29 04:00:12;;;;;;;19.00;11.80;;;;;;;18.18;93.35;96136.91;104747;1260;103698;-80
2023/08/29 04:02:40;;;;;;;14.20;11.50;;;;;;;18.19;93.51;96137.83;104709;1272;100553;-83
2023/08/29 04:05:14;;;;;;;15.70;11.20;;;;;;;18.18;93.21;96132.98;104462;1258;99973;-83
2023/08/29 04:07:42;;;;;;;14.50;10.80;;;;;;;18.17;92.97;96135.17;104789;1261;97935;-82
2023/08/29 04:10:10;;;;;;;14.90;10.70;;;;;;;18.16;93.10;96140.04;104877;1257;99537;-82
2023/08/29 04:12:38;;;;;;;11.90;10.50;;;;;;;18.15;93.09;96134.54;104990;1252;103500;-82
2023/08/29 04:15:07;;;;;;;13.50;10.40;;;;;;;18.13;92.82;96125.65;105002;1254;100514;-82
2023/08/29 04:17:34;;;;;;;14.90;10.30;;;;;;;18.09;92.83;96123.80;104681;1257;98668;-76
2023/08/29 04:20:04;;;;;;;11.30;9.80;;;;;;;18.08;92.71;96131.89;104944;1272;98005;-76
2023/08/29 04:22:32;;;;;;;11.20;10.00;;;;;;;18.05;92.43;96132.85;105050;1260;98353;-76
2023/08/29 04:25:00;;;;;;;14.30;11.00;;;;;;;18.03;92.49;96137.02;105044;1258;102350;-76
2023/08/29 04:27:27;;;;;;;17.00;11.70;;;;;;;18.01;92.40;96136.44;105013;1257;101586;-76
2023/08/29 04:29:57;;;;;;;14.40;12.70;;;;;;;17.94;92.40;96135.69;104913;1261;98978;-76
2023/08/29 04:32:25;;;;;;;15.90;14.00;;;;;;;17.93;92.57;96137.13;104973;1257;98261;-76
2023/08/29 04:34:53;;;;;;;17.70;14.70;;;;;;;17.89;92.52;96134.75;104760;1254;99526;-76
2023/08/29 04:37:20;;;;;;;19.80;14.00;;;;;;;17.87;92.64;96119.05;104920;1267;103653;-76
2023/08/29 04:39:48;;;;;;;14.20;12.80;;;;;;;17.89;92.85;96109.27;105037;1259;100607;-81
2023/08/29 04:42:16;;;;;;;15.00;12.00;;;;;;;17.90;92.89;96111.31;105071;1254;99399;-80
2023/08/29 04:44:43;;;;;;;14.10;12.20;;;;;;;17.92;93.01;96108.63;105008;1256;99270;-80
2023/08/29 04:47:11;;;;;;;18.10;12.20;;;;;;;17.95;93.12;96107.29;105055;1257;98370;-81
2023/08/29 04:49:39;;;;;;;15.20;11.30;;;;;;;17.97;93.07;96107.77;105020;1257;104016;-80
2023/08/29 04:52:06;;;;;;;15.00;12.20;;;;;;;17.97;93.10;96107.48;104927;1266;108018;-81
2023/08/29 04:54:34;;;;;;;18.40;12.40;;;;;;;18.01;93.38;96113.44;104920;1257;100068;-80
2023/08/29 04:57:04;;;;;;;15.70;13.30;;;;;;;18.06;93.57;96116.84;104944;1254;98874;-81
2023/08/29 04:59:31;;;;;;;17.20;13.50;;;;;;;18.12;93.58;96109.23;104964;1257;98524;-77
2023/08/29 05:01:59;;;;;;;15.10;12.80;;;;;;;18.18;93.62;96110.64;105078;1266;102253;-76
2023/08/29 05:04:27;;;;;;;14.60;13.00;;;;;;;18.23;93.76;96124.06;104986;1254;101806;-76
2023/08/29 05:06:55;;;;;;;18.50;14.50;;;;;;;18.28;93.83;96132.97;105016;1266;98862;-76
2023/08/29 05:09:24;;;;;;;15.70;12.80;;;;;;;18.32;93.69;96122.49;105160;1276;97847;-76
2023/08/29 05:11:51;;;;;;;14.20;12.80;;;;;;;18.37;93.74;96115.54;104994;1254;98485;-76
2023/08/29 05:14:19;;;;;;;15.30;12.30;;;;;;;18.42;93.67;96115.98;105116;1254;102662;-76
2023/08/29 05:16:47;;;;;;;15.50;12.50;;;;;;;18.46;93.52;96104.63;106692;1256;101568;-81
2023/08/29 05:19:14;;;;;;;14.60;12.30;;;;;;;18.48;93.48;96093.05;107730;1252;100082;-81
2023/08/29 05:21:42;;;;;;;14.10;12.60;;;;;;;18.52;93.50;96097.92;107600;1254;97930;-79
2023/08/29 05:24:10;;;;;;;14.90;13.30;;;;;;;18.58;93.69;96100.66;106247;1255;99224;-80
2023/08/29 05:26:38;;;;;;;15.40;12.40;;;;;;;18.63;93.70;96099.72;105103;1259;103538;-80
2023/08/29 05:29:06;;;;;;;14.70;12.50;;;;;;;18.68;93.68;96096.16;104648;1264;101807;-80
2023/08/29 05:31:34;;;;;;;17.20;13.40;;;;;;;18.74;93.71;96096.07;104613;1270;99206;-76
2023/08/29 05:34:02;;;;;;;13.70;12.10;;;;;;;18.81;93.63;96105.65;104550;1264;98087;-76
2023/08/29 05:36:29;;;;;;;14.10;12.30;;;;;;;18.85;93.54;96108.87;104627;1261;99700;-76
2023/08/29 05:38:57;;;;;;;15.00;12.80;;;;;;;18.87;93.56;96108.77;104634;1256;113487;-76
2023/08/29 05:41:25;;;;;;;13.60;12.30;;;;;;;18.89;93.55;96109.65;104528;1257;101453;-76
2023/08/29 05:43:53;;;;;;;15.40;12.40;;;;;;;18.91;93.79;96099.88;104613;1263;98429;-76
2023/08/29 05:46:20;;;;;;;14.10;12.00;;;;;;;18.95;93.74;96089.85;104611;1260;97970;-75
2023/08/29 05:48:48;;;;;;;14.40;12.80;;;;;;;19.00;93.83;96097.93;104682;1263;99681;-76
2023/08/29 05:51:16;;;;;;;14.00;12.40;;;;;;;19.06;93.79;96103.05;104710;1261;102591;-76
2023/08/29 05:53:43;;;;;;;12.50;11.20;;;;;;;19.11;93.72;96112.20;104767;1270;100075;-77
2023/08/29 05:56:11;;;;;;;17.80;12.70;;;;;;;19.16;93.56;96130.31;104653;1270;98419;-80
2023/08/29 05:58:39;;;;;;;13.60;12.20;;;;;;;19.19;93.38;96157.65;104591;1257;98452;-80
2023/08/29 06:01:08;;;;;;;14.20;12.70;;;;;;;19.22;93.40;96179.05;104953;1265;98360;-76
2023/08/29 06:03:36;;;;;;;15.00;13.00;;;;;;;19.26;93.26;96186.88;105076;1257;102644;-76
2023/08/29 06:06:05;;;;;;;17.20;13.90;;;;;;;19.27;92.99;96185.22;105017;1257;100091;-76
2023/08/29 06:08:33;;;;;;;17.40;13.10;;;;;;;19.26;92.69;96179.44;105102;1273;99254;-76
2023/08/29 06:11:03;;;;;;;14.30;12.40;;;;;;;19.27;92.94;96169.09;104947;1256;97956;-76
2023/08/29 06:13:31;;;;;;;15.20;13.10;;;;;;;19.31;92.93;96155.98;104881;1254;98738;-77
2023/08/29 06:15:58;;;;;;;15.40;12.40;;;;;;;19.36;93.09;96137.75;105153;1254;102505;-79
2023/08/29 06:18:26;;;;;;;15.30;11.00;;;;;;;19.42;93.26;96119.51;105020;1253;100180;-78
2023/08/29 06:20:54;;;;;;;14.70;11.40;;;;;;;19.47;93.18;96109.51;104987;1264;99002;-79
2023/08/29 06:23:21;;;;;;;11.90;10.10;;;;;;;19.52;93.09;96109.73;105014;1256;97928;-79
2023/08/29 06:25:49;;;;;;;10.20;8.70;;;;;;;19.55;92.91;96107.21;105027;1257;98400;-79
2023/08/29 06:28:17;;;;;;;10.10;8.70;;;;;;;19.59;92.89;96091.86;105034;1257;102671;-78
2023/08/29 06:30:45;;;;;;;11.40;8.70;;;;;;;19.64;92.85;96079.80;105050;1254;100204;-77
2023/08/29 06:33:13;;;;;;;10.60;8.90;;;;;;;19.69;92.65;96068.30;105044;1257;99966;-77
2023/08/29 06:35:40;;;;;;;9.90;8.30;;;;;;;19.74;92.49;96060.83;105029;1257;99179;-82
2023/08/29 06:38:08;;;;;;;9.10;8.20;;;;;;;19.76;92.29;96051.20;104927;1254;99276;-81
2023/08/29 06:40:36;;;;;;;9.60;8.50;;;;;;;19.83;92.13;96057.05;104994;1256;102523;-82
2023/08/29 06:43:03;;;;;;;10.80;8.30;;;;;;;19.90;92.18;96066.45;105048;1254;100415;-82
2023/08/29 06:45:31;;;;;;;9.20;8.30;;;;;;;19.97;92.07;96074.47;104956;1254;99238;-82
2023/08/29 06:47:59;;;;;;;10.30;8.10;;;;;;;20.05;91.90;96077.81;104957;1257;97998;-81
2023/08/29 06:50:26;;;;;;;10.10;7.60;;;;;;;20.16;91.91;96080.40;105031;1257;98762;-82
2023/08/29 06:52:54;;;;;;;9.20;7.30;;;;;;;20.26;91.70;96077.56;105031;1258;103630;-79
2023/08/29 06:55:22;;;;;;;7.80;6.80;;;;;;;20.35;91.11;96065.40;105033;1264;108884;-78
2023/08/29 06:57:51;;;;;;;9.20;7.40;;;;;;;20.42;90.76;96057.30;105005;1264;101216;-78
2023/08/29 07:00:22;;;;;;;8.70;7.30;;;;;;;20.51;90.30;96056.97;104978;1257;99272;-79
2023/08/29 07:02:51;;;;;;;7.10;6.40;;;;;;;20.61;90.39;96059.11;105017;1256;98958;-78
2023/08/29 07:05:19;;;;;;;9.10;6.40;;;;;;;20.71;90.06;96054.23;105017;1256;102726;-79
2023/08/29 07:07:47;;;;;;;9.00;6.70;;;;;;;20.79;89.47;96066.14;104988;1268;108112;-79
2023/08/29 07:10:14;;;;;;;7.10;6.40;;;;;;;20.88;89.00;96069.25;105049;1256;98381;-78
2023/08/29 07:12:42;;;;;;;8.80;7.00;;;;;;;20.98;88.96;96074.22;104939;1257;97964;-81
2023/08/29 07:15:10;;;;;;;7.00;6.30;;;;;;;21.07;88.73;96070.33;104739;1260;98377;-76
2023/08/29 07:17:38;;;;;;;6.60;6.00;;;;;;;21.16;88.52;96071.98;104657;1271;103700;-81
2023/08/29 07:20:08;;;;;;;7.40;6.10;;;;;;;21.27;88.00;96077.46;104585;1260;100348;-81
2023/08/29 07:22:40;;;;;;;6.80;6.20;;;;;;;21.34;86.90;96081.25;104747;1259;99158;-81
2023/08/29 07:25:08;;;;;;;7.00;6.00;;;;;;;21.46;87.03;96095.84;104511;1265;98135;-81
2023/08/29 07:27:36;;;;;;;7.90;6.00;;;;;;;21.57;86.45;96096.50;104478;1262;97895;-80
2023/08/29 07:30:05;;;;;;;6.00;5.40;;;;;;;21.68;86.29;96095.94;104588;1267;110893;-80
2023/08/29 07:32:33;;;;;;;5.80;5.20;;;;;;;21.80;85.60;96096.92;104644;1258;100112;-79
2023/08/29 07:35:02;;;;;;;5.60;5.00;;;;;;;21.96;85.02;96091.03;104640;1270;106831;-81
2023/08/29 07:37:30;;;;;;;7.20;5.00;;;;;;;22.13;84.60;96091.30;104712;1278;99237;-82
2023/08/29 07:39:57;;;;;;;6.20;5.60;;;;;;;22.33;84.05;96098.17;104631;1257;98536;-81
2023/08/29 07:42:25;;;;;;;5.80;4.90;;;;;;;22.51;83.89;96099.78;104799;1272;102062;-80
2023/08/29 07:44:53;;;;;;;6.90;5.00;;;;;;;22.71;83.69;96101.27;104598;1261;100104;-80
2023/08/29 07:47:21;;;;;;;5.30;4.80;;;;;;;23.02;83.17;96098.85;105007;1257;99107;-80
2023/08/29 07:49:48;;;;;;;6.10;5.50;;;;;;;23.41;82.54;96085.45;105075;1257;98046;-80
2023/08/29 07:52:16;;;;;;;7.50;4.70;;;;;;;23.80;81.97;96078.00;104991;1255;98395;-80
2023/08/29 07:54:44;;;;;;;5.30;4.40;;;;;;;24.01;81.19;96082.85;105083;1256;103691;-80
2023/08/29 07:57:12;;;;;;;5.20;4.30;;;;;;;24.25;80.13;96076.60;104981;1254;100170;-80
2023/08/29 07:59:40;;;;;;;4.80;4.30;;;;;;;24.63;79.47;96083.44;104957;1257;106780;-82
2023/08/29 08:02:07;;;;;;;4.40;4.00;;;;;;;24.96;78.25;96084.55;104705;1272;99234;-83
2023/08/29 08:04:35;;;;;;;3.70;3.20;;;;;;;25.30;76.80;96086.89;104936;1260;98557;-84
2023/08/29 08:07:03;;;;;;;3.20;2.90;;;;;;;25.66;75.79;96084.58;104987;1257;102617;-83
2023/08/29 08:09:31;;;;;;;14.30;3.50;;;;;;;26.01;73.65;96077.70;105120;1257;101612;-81
2023/08/29 08:11:59;;;;;;;7.30;3.90;;;;;;;26.34;73.86;96073.64;104964;1267;107393;-81
2023/08/29 08:14:26;;;;;;;7.80;4.10;;;;;;;26.63;73.09;96080.04;105017;1257;97895;-81
2023/08/29 08:16:54;;;;;;;4.40;3.50;;;;;;;26.90;71.79;96079.81;105132;1254;97845;-78
2023/08/29 08:19:22;;;;;;;5.40;4.50;;;;;;;27.05;70.79;96080.83;105034;1259;102599;-78
2023/08/29 08:21:50;;;;;;;7.60;3.80;;;;;;;27.06;70.28;96076.60;105051;1254;101450;-78
2023/08/29 08:24:17;;;;;;;6.30;4.00;;;;;;;27.07;69.99;96077.25;104718;1261;98971;-78
2023/08/29 08:26:46;;;;;;;4.10;3.70;;;;;;;27.12;69.92;96084.29;104932;1254;97928;-78
2023/08/29 08:29:13;;;;;;;5.60;4.20;;;;;;;27.26;69.50;96093.73;105041;1259;98887;-78
2023/08/29 08:31:41;;;;;;;5.00;4.60;;;;;;;27.26;68.34;96094.36;104931;1257;103660;-80
2023/08/29 08:34:10;;;;;;;4.80;4.00;;;;;;;27.11;66.94;96084.98;105056;1257;100350;-79
2023/08/29 08:36:38;;;;;;;6.90;4.40;;;;;;;26.96;66.61;96081.10;104998;1257;98678;-80
2023/08/29 08:39:05;;;;;;;5.50;4.60;;;;;;;26.92;66.32;96074.02;104931;1256;97898;-80
2023/08/29 08:41:34;;;;;;;5.80;4.30;;;;;;;26.89;67.26;96075.60;104963;1257;98536;-80
2023/08/29 08:44:05;;;;;;;7.20;4.50;;;;;;;26.88;67.59;96080.38;104999;1257;102686;-80
2023/08/29 08:46:34;;;;;;;5.40;4.90;;;;;;;26.87;67.23;96078.20;104916;1254;100504;-80
2023/08/29 08:49:02;;;;;;;5.90;5.00;;;;;;;26.91;66.23;96082.77;104726;1263;100047;-82
2023/08/29 08:51:32;;;;;;;7.40;4.70;;;;;;;27.01;66.12;96083.15;104927;1254;97933;-81
2023/08/29 08:54:00;;;;;;;7.90;4.80;;;;;;;27.16;65.97;96072.39;104923;1260;99164;-81
2023/08/29 08:56:29;;;;;;;6.20;5.10;;;;;;;27.34;65.68;96067.53;105041;1270;102191;-80
2023/08/29 08:58:57;;;;;;;6.50;5.70;;;;;;;27.42;64.60;96062.08;105115;1256;101576;-81
2023/08/29 09:01:25;;;;;;;6.40;5.00;;;;;;;27.44;64.32;96064.26;105046;1257;98877;-82
2023/08/29 09:03:53;;;;;;;8.10;5.20;;;;;;;27.42;63.75;96063.42;105113;1256;97898;-83
2023/08/29 09:06:21;;;;;;;7.40;5.50;;;;;;;27.28;63.27;96063.89;105080;1257;98490;-83
2023/08/29 09:08:48;;;;;;;7.80;5.90;;;;;;;27.15;63.88;96064.52;105072;1267;102131;-81
2023/08/29 09:11:19;;;;;;;7.20;6.00;;;;;;;27.09;64.29;96060.95;104971;1257;101546;-82
2023/08/29 09:13:50;;;;;;;6.30;5.70;;;;;;;27.07;64.10;96059.05;104982;1257;99490;-82
2023/08/29 09:16:18;;;;;;;7.00;5.50;;;;;;;27.02;64.04;96070.08;105048;1253;98830;-81
2023/08/29 09:18:50;;;;;;;6.80;5.30;;;;;;;27.00;64.22;96080.69;105073;1257;98413;-81
2023/08/29 09:21:21;;;;;;;7.40;5.90;;;;;;;27.05;64.08;96079.09;104670;1252;102653;-80
2023/08/29 09:23:50;;;;;;;6.50;5.90;;;;;;;27.10;64.07;96075.54;105002;1257;99981;-81
2023/08/29 09:26:18;;;;;;;6.60;5.90;;;;;;;27.11;64.55;96080.55;104969;1254;99320;-80
2023/08/29 09:28:46;;;;;;;7.10;5.30;;;;;;;27.10;64.34;96077.36;104973;1257;97960;-81
2023/08/29 09:31:15;;;;;;;11.30;6.50;;;;;;;27.11;64.51;96076.60;104670;1259;98841;-80
2023/08/29 09:33:43;;;;;;;6.70;5.90;;;;;;;27.07;64.18;96082.17;105113;1254;103737;-79
2023/08/29 09:36:11;;;;;;;6.50;5.70;;;;;;;26.96;64.33;96078.59;104932;1256;100535;-80
2023/08/29 09:38:41;;;;;;;7.00;6.00;;;;;;;26.87;64.96;96074.56;104943;1268;99417;-80
2023/08/29 09:41:18;;;;;;;10.70;6.50;;;;;;;26.89;64.98;96081.20;104737;1261;98107;-80
2023/08/29 09:43:48;;;;;;;7.30;5.50;;;;;;;26.89;64.21;96101.69;105097;1254;98350;-80
2023/08/29 09:46:22;;;;;;;6.30;5.60;;;;;;;26.80;64.43;96113.02;104838;1260;105173;-82
2023/08/29 09:48:56;;;;;;;8.50;6.30;;;;;;;26.78;64.96;96103.94;104965;1257;100410;-80
2023/08/29 09:51:25;;;;;;;7.60;6.80;;;;;;;26.92;65.48;96098.31;105013;1253;100120;-81
2023/08/29 09:53:57;;;;;;;7.40;6.50;;;;;;;27.10;64.49;96105.30;104962;1257;98050;-81
2023/08/29 09:56:28;;;;;;;10.50;7.90;;;;;;;27.27;63.72;96111.58;105003;1257;99804;-81
2023/08/29 09:59:00;;;;;;;7.80;7.00;;;;;;;27.44;63.74;96115.35;104637;1263;102187;-80
2023/08/29 10:01:28;;;;;;;8.90;7.40;;;;;;;27.56;63.24;96108.29;105062;1256;101262;-82
2023/08/29 10:03:57;;;;;;;8.10;6.90;;;;;;;27.63;63.09;96105.55;104970;1257;100092;-83
2023/08/29 10:06:26;;;;;;;8.40;7.60;;;;;;;27.64;63.34;96108.27;104642;1262;97951;-80
2023/08/29 10:09:01;;;;;;;8.80;7.30;;;;;;;27.59;63.22;96104.02;105054;1257;98423;-81
2023/08/29 10:11:29;;;;;;;8.20;7.40;;;;;;;27.51;62.66;96102.23;105114;1257;103625;-80
2023/08/29 10:13:59;;;;;;;8.90;7.80;;;;;;;27.40;62.41;96095.75;104991;1259;101874;-80
2023/08/29 10:16:28;;;;;;;8.80;7.80;;;;;;;27.30;62.92;96102.50;104678;1272;98635;-82
2023/08/29 10:18:56;;;;;;;8.90;7.80;;;;;;;27.19;63.20;96106.91;104903;1254;99247;-82
2023/08/29 10:21:26;;;;;;;10.00;7.80;;;;;;;27.11;63.36;96116.46;105048;1256;98412;-82
2023/08/29 10:23:54;;;;;;;8.90;7.80;;;;;;;27.05;63.75;96124.36;105002;1254;104178;-82
2023/08/29 10:26:24;;;;;;;13.60;8.50;;;;;;;27.05;63.58;96123.80;104727;1259;101691;-83
2023/08/29 10:28:53;;;;;;;9.70;8.70;;;;;;;27.06;63.40;96117.34;104944;1256;100154;-82
2023/08/29 10:31:21;;;;;;;11.30;8.20;;;;;;;27.04;63.37;96120.36;104769;1260;97992;-82
2023/08/29 10:33:49;;;;;;;9.60;8.50;;;;;;;26.99;63.53;96119.73;104998;1257;98358;-82
2023/08/29 10:36:17;;;;;;;9.70;8.20;;;;;;;26.96;63.85;96119.95;104519;1262;102774;-81
2023/08/29 10:38:48;;;;;;;11.20;8.00;;;;;;;26.95;63.63;96117.78;104592;1261;101785;-82
2023/08/29 10:41:16;;;;;;;12.40;8.30;;;;;;;26.95;63.33;96115.48;104582;1263;99001;-82
2023/08/29 10:43:44;;;;;;;11.80;9.00;;;;;;;26.93;63.32;96114.23;104518;1265;98031;-81
2023/08/29 10:46:11;;;;;;;13.80;8.80;;;;;;;26.92;63.92;96110.34;104811;1259;98454;-80
2023/08/29 10:48:43;;;;;;;9.50;8.20;;;;;;;26.93;63.88;96103.41;104609;1263;103261;-81
2023/08/29 10:51:13;;;;;;;12.60;8.50;;;;;;;26.88;63.74;96102.53;104741;1260;100343;-80
2023/08/29 10:53:43;;;;;;;11.30;8.80;;;;;;;26.77;64.46;96106.02;104565;1261;100075;-80
2023/08/29 10:56:13;;;;;;;11.10;8.50;;;;;;;26.70;64.93;96100.03;104708;1256;98365;-80
2023/08/29 10:58:45;;;;;;;11.20;8.40;;;;;;;26.64;65.13;96096.15;104648;1276;99658;-81
2023/08/29 11:01:26;;;;;;;14.00;8.80;;;;;;;26.58;65.54;96094.11;104464;1265;102211;-80
2023/08/29 11:04:03;;;;;;;12.80;9.10;;;;;;;26.47;65.50;96107.27;104646;1273;108904;-81
2023/08/29 11:06:53;;;;;;;10.00;8.80;;;;;;;26.32;66.20;96120.38;104444;1264;98979;-80
2023/08/29 11:09:25;;;;;;;10.70;7.90;;;;;;;26.24;66.54;96127.23;104599;1258;98544;-81
2023/08/29 11:12:07;;;;;;;11.60;8.50;;;;;;;26.19;66.93;96134.81;104800;1263;98885;-82
2023/08/29 11:14:55;;;;;;;10.90;8.60;;;;;;;26.10;67.24;96143.27;104483;1260;103814;-81
2023/08/29 11:17:24;;;;;;;12.40;8.90;;;;;;;25.96;68.25;96151.15;104412;1265;100613;-82
2023/08/29 11:19:53;;;;;;;11.10;9.40;;;;;;;25.89;68.69;96137.80;104511;1282;100190;-82